Terminal Aerodrome Forecast
Issued by NWS Jackson, MS

Home | Current Version | Previous Version | Text Only | Print | Product List | Glossary On
Versions: 1 2 3 4 5 6 7 8 9 10 11 12 13 14 15 16
851
FTUS44 KJAN 041120
TAFGWO
TAF
KGWO 041120Z 0412/0512 27006KT P6SM SKC
     FM041400 28012KT P6SM SKC
     FM041700 29014G22KT P6SM FEW250
     FM042300 31012KT P6SM VCSH SCT050 SCT250
     FM050300 31008KT P6SM FEW250=

USA.gov is the U.S. government's official web portal to all federal, state and local government web resources and services.